Ashwood, OR (97711)

11:20 AM PDT on September 22, 2014 (GMT -0700)
APRSWXNET Ashwood OR US | Change Station
CLOSE
Current Station
Personal Weather Station
Location: Ashwood, OR
Elevation: 3343 ft
Nearby Weather Stations

Elev 3343 ft 44.75 °N, 120.81 °W | Updated 265 days ago

Partly Cloudy
Partly Cloudy
75 °F
Feels Like 75 °F
N
4
Wind Variable Wind from WSW
Gusts 3 mph

Today
High -- | Low -- °F
--% Chance of Precip.
Yesterday
High -- | Low -- °F
Precip. -- in
6:49 AM 6:59 PM
Waning Crescent, 2% visible
Pressure 29.95 in
Visibility 10.0 miles
Clouds Clear
Dew Point 52 °F
Humidity 44%
Rainfall 0.00 in
Snow Depth 0 in , 0 in , 0 in
UV 5 out of 12
Pollen 2.20 out of 12
Air Quality Not available.
Flu Activity Not available.
METAR KRDM 221756Z 00000KT 10SM CLR 23/09 A3003 RMK AO2 RAE02 SLP142 P0000 60000 T02280089 10228 20139 50006

More Conditions Fewer Conditions

Pressure 29.95 in
Visibility 10.0 miles
Clouds Clear
Dew Point 52 °F
Humidity 44%
Rainfall 0.00 in
Snow Depth 0 in , 0 in , 0 in
UV 5 out of 12
Pollen 2.20 out of 12
Air Quality Not available.
Flu Activity Not available.
METAR KRDM 221756Z 00000KT 10SM CLR 23/09 A3003 RMK AO2 RAE02 SLP142 P0000 60000 T02280089 10228 20139 50006

More Conditions Fewer Conditions

10-Day Weather Forecast

Almanac

Astronomy

Sep. 22, 2014 Rise Set
Actual Time 6:49 AM PDT 6:59 PM PDT
Civil Twilight 6:20 AM PDT 7:28 PM PDT
Nautical Twilight 5:46 AM PDT 8:03 PM PDT
Astronomical Twilight 5:11 AM PDT 8:38 PM PDT
Moon 5:20 AM PDT 6:11 PM PDT
Length of Visible Light 13h 08m
Length of Day
12h 10m
Tomorrow will be 3m 4s shorter.
Waning Crescent, 2% of the Moon is Illuminated
Today
Waning Crescent
Sep 24
New
Oct 1
First Quarter
Oct 8
Full
Oct 15
Last Quarter

Today's Extremes

State Highs State Lows

Community

WunderPhotos

Upload Photos

1,755,506 photos uploaded!

WunderBlogs® & News

By Dr. Jeff Masters
Director of Meteorology, Weather Underground
By Kari Strenfel
Meteorologist, Weather Underground
By Christopher C. Burt
Weather Historian, Weather Underground
September 22, 2014
September 22, 2014
September 22, 2014

Nearby

Snow Depth

Station Depth Elevation
Strawberry 0 in 5760 ft
High Ridge 0 in 4980 ft
Santiam Junction 0 in 3750 ft
Seine Creek 0 in 2000 ft
Madison Butte 0 in 5250 ft

Earthquake Activity

City Distance Mag. Time & Date
No recent earthquake activity has been reported nearby.
Minimum magnitude displayed is 2.5.

Coastal Water Temperatures

Place Temperature
No Stations Reporting

Nearby Weather Stations